Time;durP1;ratioP1;P1;durP2;ratioP2;P2;SDS_P1;SDS_P2;PMS_P1;PMS_P2;Temp;Humidity;BMP_temperature;BMP_pressure;BME280_temperature;BME280_humidity;BME280_pressure;Samples;Min_cycle;Max_cycle;Signal;HPM_P1;HPM_P2
2020/12/29 00:02:22;;;;;;;18.03;8.13;;;;;;;4.92;78.21;97859.84;1666319;84;21750;-76
2020/12/29 00:04:48;;;;;;;14.20;7.17;;;;;;;4.96;78.18;97862.67;1665349;84;21319;-76
2020/12/29 00:07:14;;;;;;;13.40;7.70;;;;;;;4.99;78.15;97864.67;1664830;85;21679;-76
2020/12/29 00:09:40;;;;;;;20.40;7.53;;;;;;;5.04;78.15;97855.54;1662615;84;21616;-76
2020/12/29 00:12:06;;;;;;;18.43;7.90;;;;;;;5.06;78.15;97852.92;1663193;84;20968;-76
2020/12/29 00:14:32;;;;;;;14.03;6.97;;;;;;;5.08;78.11;97858.81;1664778;84;21153;-76
2020/12/29 00:16:58;;;;;;;14.93;8.58;;;;;;;5.10;78.07;97854.47;1662979;84;21250;-76
2020/12/29 00:19:27;;;;;;;14.00;7.67;;;;;;;5.10;78.06;97851.47;1664931;85;22565;-76
2020/12/29 00:21:53;;;;;;;14.98;7.80;;;;;;;5.09;78.07;97850.23;1666192;84;21110;-76
2020/12/29 00:24:19;;;;;;;;;;;;;;;5.10;78.06;97845.51;1670846;84;21171;-76
2020/12/29 00:26:45;;;;;;;16.12;7.42;;;;;;;5.10;78.06;97840.39;1666955;84;20200;-76
2020/12/29 00:29:11;;;;;;;13.50;7.60;;;;;;;5.08;78.13;97843.00;1665287;84;21448;-76
2020/12/29 00:31:37;;;;;;;14.97;7.07;;;;;;;5.07;78.14;97840.05;1668503;84;20959;-76
2020/12/29 00:34:04;;;;;;;15.88;7.87;;;;;;;5.06;78.14;97837.11;1666459;84;21153;-76
2020/12/29 00:36:30;;;;;;;12.35;7.30;;;;;;;5.06;78.16;97842.23;1665479;84;22269;-76
2020/12/29 00:38:57;;;;;;;16.42;7.87;;;;;;;5.06;78.21;97837.55;1660733;84;21199;-76
2020/12/29 00:41:24;;;;;;;12.25;6.60;;;;;;;5.04;78.26;97837.61;1664402;84;21232;-76
2020/12/29 00:43:50;;;;;;;13.98;6.70;;;;;;;5.04;78.33;97845.74;1666696;84;21154;-76
2020/12/29 00:46:19;;;;;;;11.93;6.00;;;;;;;5.01;78.35;97844.13;1667385;84;21449;-76
2020/12/29 00:48:47;;;;;;;10.45;6.35;;;;;;;5.01;78.36;97844.13;1668006;84;22004;-76
2020/12/29 00:51:17;;;;;;;10.98;5.50;;;;;;;4.99;78.45;97841.63;1692991;82;21133;-76
2020/12/29 00:53:43;;;;;;;13.50;7.00;;;;;;;4.99;78.50;97845.91;1701116;82;21476;-76
2020/12/29 00:56:10;;;;;;;14.00;7.17;;;;;;;4.98;78.54;97847.64;1699585;82;20941;-76
2020/12/29 00:58:36;;;;;;;;;;;;;;;4.98;78.56;97848.09;1703046;82;21522;-76
2020/12/29 01:01:06;;;;;;;;;;;;;;;4.94;78.62;97846.53;1704283;82;20268;-76
2020/12/29 01:03:32;;;;;;;13.28;6.25;;;;;;;4.92;78.66;97850.88;1702475;82;20525;-75
2020/12/29 01:05:59;;;;;;;9.60;5.85;;;;;;;4.87;78.68;97848.48;1702940;82;22100;-76
2020/12/29 01:08:25;;;;;;;9.70;6.08;;;;;;;4.82;78.68;97847.82;1703849;82;21587;-76
2020/12/29 01:10:56;;;;;;;10.48;6.53;;;;;;;4.78;78.78;97850.55;1705249;82;21144;-76
2020/12/29 01:13:22;;;;;;;11.30;5.92;;;;;;;4.76;78.81;97851.05;1701979;82;21112;-76
2020/12/29 01:15:50;;;;;;;13.35;6.62;;;;;;;4.71;78.78;97846.10;1701049;82;21103;-76
2020/12/29 01:18:16;;;;;;;10.68;7.03;;;;;;;4.69;78.87;97850.89;1698982;83;21344;-76
2020/12/29 01:20:43;;;;;;;10.95;6.50;;;;;;;4.65;78.91;97848.47;1701661;82;21124;-76
2020/12/29 01:23:09;;;;;;;10.98;6.92;;;;;;;4.58;79.15;97843.63;1702718;82;21113;-76
2020/12/29 01:25:34;;;;;;;9.98;5.67;;;;;;;4.58;79.15;97843.63;1697102;82;21318;-76
2020/12/29 01:28:00;;;;;;;12.60;6.50;;;;;;;4.58;79.03;97848.75;1701550;82;20960;-76
2020/12/29 01:30:27;;;;;;;10.82;6.28;;;;;;;4.55;79.03;97847.14;1705533;82;21545;-76
2020/12/29 01:32:53;;;;;;;10.55;5.85;;;;;;;4.53;79.07;97841.23;1699257;82;21141;-76
2020/12/29 01:35:19;;;;;;;11.38;6.40;;;;;;;4.52;79.12;97838.29;1702353;82;21104;-76
2020/12/29 01:37:45;;;;;;;13.63;6.77;;;;;;;4.54;79.15;97839.52;1702599;83;20933;-76
2020/12/29 01:40:13;;;;;;;15.18;6.67;;;;;;;4.55;79.16;97826.66;1700536;82;21079;-76
2020/12/29 01:42:40;;;;;;;13.10;5.92;;;;;;;4.56;79.16;97823.22;1697675;82;21566;-76
2020/12/29 01:45:08;;;;;;;;;;;;;;;4.57;79.11;97812.53;1702689;82;21128;-76
2020/12/29 01:47:38;;;;;;;10.28;6.60;;;;;;;4.54;79.14;97809.64;1703387;82;20272;-76
2020/12/29 01:50:12;;;;;;;13.38;6.87;;;;;;;4.53;79.12;97810.53;1701765;82;21481;-76
2020/12/29 01:52:39;;;;;;;10.93;6.40;;;;;;;4.50;79.15;97808.53;1700410;82;21112;-76
2020/12/29 01:55:10;;;;;;;11.33;6.05;;;;;;;4.50;79.19;97809.81;1705495;82;21255;-76
2020/12/29 01:57:37;;;;;;;9.20;6.15;;;;;;;4.48;79.19;97810.31;1702332;82;21159;-76
2020/12/29 02:00:08;;;;;;;;;;;;;;;4.47;79.17;97808.64;1706319;82;21095;-76
2020/12/29 02:02:34;;;;;;;14.68;6.42;;;;;;;4.47;79.26;97795.84;1700301;82;20255;-76
2020/12/29 02:05:01;;;;;;;9.28;5.72;;;;;;;4.45;79.24;97797.63;1701517;82;21509;-76
2020/12/29 02:07:28;;;;;;;12.03;6.83;;;;;;;4.44;79.30;97790.40;1698212;82;21412;-76
2020/12/29 02:09:55;;;;;;;8.83;6.20;;;;;;;4.44;79.29;97795.52;1696895;82;21199;-76
2020/12/29 02:12:25;;;;;;;9.58;5.75;;;;;;;4.45;79.32;97791.23;1701635;82;28308;-77
2020/12/29 02:14:52;;;;;;;12.18;6.33;;;;;;;4.46;79.34;97789.06;1703066;82;21287;-77
2020/12/29 02:17:18;;;;;;;10.28;5.42;;;;;;;4.46;79.35;97791.17;1702364;82;21183;-77
2020/12/29 02:19:44;;;;;;;8.78;5.70;;;;;;;4.47;79.35;97789.01;1701899;82;21436;-76
2020/12/29 02:22:13;;;;;;;11.40;6.25;;;;;;;4.48;79.38;97794.52;1702788;84;21202;-76
2020/12/29 02:24:39;;;;;;;10.75;6.03;;;;;;;4.50;79.43;97806.81;1698236;82;21609;-76
2020/12/29 02:27:05;;;;;;;9.87;5.07;;;;;;;4.51;79.38;97803.80;1700629;84;20941;-76
2020/12/29 02:29:33;;;;;;;12.18;6.72;;;;;;;4.51;79.36;97799.52;1698747;82;21205;-76
2020/12/29 02:31:59;;;;;;;10.78;6.17;;;;;;;4.51;79.44;97794.41;1701788;82;21703;-76
2020/12/29 02:34:26;;;;;;;9.30;5.85;;;;;;;4.52;79.42;97790.95;1697722;82;21844;-77
2020/12/29 02:36:53;;;;;;;11.88;7.03;;;;;;;4.52;79.45;97796.07;1702663;83;28302;-76
2020/12/29 02:39:19;;;;;;;11.97;7.05;;;;;;;4.54;79.46;97786.61;1704179;82;21534;-76
2020/12/29 02:41:45;;;;;;;10.75;6.72;;;;;;;4.55;79.49;97793.84;1703626;82;21226;-77
2020/12/29 02:44:16;;;;;;;10.10;6.77;;;;;;;4.56;79.48;97797.63;1702009;82;21218;-77
2020/12/29 02:46:42;;;;;;;11.63;7.17;;;;;;;4.57;79.51;97789.50;1700163;82;21307;-76
2020/12/29 02:49:08;;;;;;;12.30;6.00;;;;;;;4.57;79.51;97794.62;1679875;84;21119;-77
2020/12/29 02:51:34;;;;;;;13.17;6.83;;;;;;;4.58;79.53;97784.77;1694972;83;20929;-77
2020/12/29 02:54:00;;;;;;;8.93;6.47;;;;;;;4.59;79.56;97785.16;1694233;83;21064;-77
2020/12/29 02:56:26;;;;;;;8.53;5.97;;;;;;;4.60;79.62;97784.27;1691595;83;21195;-77
2020/12/29 02:58:52;;;;;;;13.87;6.07;;;;;;;4.59;79.67;97778.32;1696087;83;21123;-77
2020/12/29 03:01:18;;;;;;;8.25;6.30;;;;;;;4.58;79.65;97775.82;1689726;83;21179;-77
2020/12/29 03:03:44;;;;;;;11.77;7.17;;;;;;;4.57;79.68;97772.42;1696718;83;21592;-77
2020/12/29 03:06:10;;;;;;;11.17;6.27;;;;;;;4.57;79.68;97774.98;1695880;83;21154;-77
2020/12/29 03:08:36;;;;;;;11.27;7.20;;;;;;;4.58;79.71;97779.66;1691321;84;21279;-76
2020/12/29 03:11:04;;;;;;;11.60;7.07;;;;;;;4.60;79.78;97777.43;1694702;83;20961;-76
2020/12/29 03:13:30;;;;;;;13.88;7.25;;;;;;;4.61;79.80;97769.31;1656667;84;21223;-76
2020/12/29 03:15:55;;;;;;;11.97;7.03;;;;;;;4.64;79.83;97775.59;1679229;83;21674;-76
2020/12/29 03:18:21;;;;;;;11.80;6.80;;;;;;;4.62;80.04;97765.86;1669448;84;20962;-76
2020/12/29 03:20:47;;;;;;;10.32;7.03;;;;;;;4.67;79.87;97769.52;1692439;84;21294;-77
2020/12/29 03:23:13;;;;;;;12.53;6.57;;;;;;;4.68;79.92;97768.16;1695925;83;21166;-77
2020/12/29 03:25:39;;;;;;;9.07;6.63;;;;;;;4.70;79.93;97774.49;1693246;83;21618;-77
2020/12/29 03:28:05;;;;;;;12.33;6.78;;;;;;;4.71;79.93;97771.05;1693963;83;21467;-77
2020/12/29 03:30:31;;;;;;;11.33;7.40;;;;;;;4.70;79.95;97771.48;1691491;84;20977;-77
2020/12/29 03:32:57;;;;;;;16.30;7.10;;;;;;;4.70;80.00;97771.94;1694928;84;22020;-77
2020/12/29 03:35:23;;;;;;;11.53;7.33;;;;;;;4.69;80.07;97776.67;1696709;83;21439;-77
2020/12/29 03:37:49;;;;;;;9.20;6.47;;;;;;;4.65;80.06;97774.25;1691559;84;21484;-77
2020/12/29 03:40:15;;;;;;;15.23;9.10;;;;;;;4.65;80.18;97779.38;1693594;84;20938;-77
2020/12/29 03:42:40;;;;;;;9.90;7.27;;;;;;;4.64;80.21;97776.87;1695963;83;21536;-77
2020/12/29 03:45:06;;;;;;;12.93;7.33;;;;;;;4.63;80.22;97779.05;1695088;83;21171;-77
2020/12/29 03:47:32;;;;;;;13.63;7.37;;;;;;;4.62;80.22;97779.94;1687089;84;21604;-77
2020/12/29 03:49:58;;;;;;;12.60;7.63;;;;;;;4.61;80.27;97778.27;1694983;84;21314;-77
2020/12/29 03:52:24;;;;;;;10.07;6.80;;;;;;;4.61;80.32;97774.42;1681243;84;21679;-77
2020/12/29 03:54:50;;;;;;;11.17;6.53;;;;;;;4.59;80.34;97771.92;1676455;84;20969;-77
2020/12/29 03:57:16;;;;;;;11.70;7.73;;;;;;;4.58;80.36;97774.54;1676511;84;22536;-77
2020/12/29 03:59:42;;;;;;;9.87;6.43;;;;;;;4.57;80.42;97766.48;1676277;84;20977;-77
2020/12/29 04:02:09;;;;;;;14.40;8.27;;;;;;;4.55;80.43;97769.09;1676734;84;21607;-77
2020/12/29 04:04:37;;;;;;;11.22;6.90;;;;;;;4.54;80.47;97767.42;1675619;85;21230;-77
2020/12/29 04:07:03;;;;;;;12.25;7.47;;;;;;;4.54;80.51;97769.15;1675974;84;21191;-77
2020/12/29 04:09:31;;;;;;;11.88;7.55;;;;;;;4.53;80.59;97767.03;1676661;85;21728;-77
2020/12/29 04:11:57;;;;;;;10.05;7.12;;;;;;;4.53;80.57;97763.64;1656962;85;21219;-77
2020/12/29 04:14:24;;;;;;;11.88;7.58;;;;;;;4.52;80.59;97761.97;1676079;84;21666;-77
2020/12/29 04:16:50;;;;;;;14.75;8.25;;;;;;;4.52;80.63;97767.09;1675440;84;21257;-77
2020/12/29 04:19:16;;;;;;;12.37;7.53;;;;;;;4.50;80.62;97763.75;1675499;84;21200;-77
2020/12/29 04:21:42;;;;;;;9.75;6.90;;;;;;;4.48;80.68;97767.65;1676750;84;21225;-77
2020/12/29 04:24:08;;;;;;;14.67;7.53;;;;;;;4.47;80.71;97763.42;1682707;84;20998;-77
2020/12/29 04:26:34;;;;;;;13.45;7.00;;;;;;;4.46;80.73;97763.03;1676162;84;21153;-77
2020/12/29 04:29:00;;;;;;;13.67;7.73;;;;;;;4.46;80.75;97772.44;1652020;85;21680;-77
2020/12/29 04:31:27;;;;;;;9.50;6.80;;;;;;;4.45;80.78;97765.20;1675661;84;21218;-77
2020/12/29 04:33:53;;;;;;;14.40;8.13;;;;;;;4.44;80.81;97767.37;1676220;84;21195;-77
2020/12/29 04:36:19;;;;;;;11.30;8.03;;;;;;;4.43;80.84;97772.55;1676123;84;21276;-77
2020/12/29 04:38:45;;;;;;;12.13;7.47;;;;;;;4.42;80.89;97775.55;1675419;84;21016;-77
2020/12/29 04:41:11;;;;;;;14.20;7.73;;;;;;;4.43;80.96;97776.38;1676645;85;21710;-77
2020/12/29 04:43:37;;;;;;;11.78;8.95;;;;;;;4.44;80.95;97774.22;1675915;84;21223;-78
2020/12/29 04:46:04;;;;;;;11.50;7.72;;;;;;;4.43;80.98;97773.38;1666494;85;21638;-78
2020/12/29 04:48:32;;;;;;;11.35;7.62;;;;;;;4.43;81.01;97772.55;1676123;84;21203;-78
2020/12/29 04:51:09;;;;;;;10.85;7.67;;;;;;;4.43;81.00;97774.66;1675021;84;21256;-77
2020/12/29 04:53:36;;;;;;;11.22;7.75;;;;;;;4.44;81.05;97773.77;1666481;84;21267;-77
2020/12/29 04:56:08;;;;;;;11.48;7.70;;;;;;;4.44;81.08;97765.27;1666528;84;21174;-77
2020/12/29 04:58:37;;;;;;;10.23;7.55;;;;;;;4.45;81.10;97768.20;1666098;84;21335;-77
2020/12/29 05:01:07;;;;;;;10.43;7.87;;;;;;;4.45;81.10;97771.59;1666418;83;21316;-77
2020/12/29 05:03:45;;;;;;;10.00;7.92;;;;;;;4.46;81.12;97774.99;1667162;84;21208;-77
2020/12/29 05:06:12;;;;;;;11.88;8.05;;;;;;;4.46;81.16;97771.16;1666219;85;21242;-77
2020/12/29 05:08:46;;;;;;;11.18;7.78;;;;;;;4.46;81.19;97774.55;1667017;85;21649;-77
2020/12/29 05:11:12;;;;;;;12.63;8.63;;;;;;;4.47;81.21;97765.15;1650952;85;21582;-76
2020/12/29 05:13:39;;;;;;;15.90;8.15;;;;;;;4.48;81.22;97775.77;1666927;84;21216;-76
2020/12/29 05:16:05;;;;;;;11.73;7.47;;;;;;;4.48;81.26;97770.20;1666849;85;21181;-76
2020/12/29 05:18:31;;;;;;;13.93;8.07;;;;;;;4.48;81.29;97772.77;1666903;84;21687;-76
2020/12/29 05:20:57;;;;;;;13.13;8.57;;;;;;;4.49;81.28;97775.72;1655108;85;21035;-76
2020/12/29 05:23:23;;;;;;;11.68;7.00;;;;;;;4.50;81.31;97773.98;1667542;84;22172;-76
2020/12/29 05:25:51;;;;;;;12.40;7.17;;;;;;;4.51;81.35;97773.09;1652857;85;21659;-76
2020/12/29 05:28:18;;;;;;;10.95;8.68;;;;;;;4.52;81.33;97775.60;1666582;85;21252;-77
2020/12/29 05:30:52;;;;;;;13.53;7.67;;;;;;;4.54;81.36;97778.94;1665147;85;24887;-77
2020/12/29 05:33:19;;;;;;;11.95;8.18;;;;;;;4.55;81.37;97786.17;1659806;85;21213;-77
2020/12/29 05:35:45;;;;;;;12.82;8.45;;;;;;;4.55;81.42;97781.05;1669016;83;21205;-77
2020/12/29 05:38:11;;;;;;;12.77;8.57;;;;;;;4.56;81.43;97786.11;1671927;83;20971;-77
2020/12/29 05:40:38;;;;;;;11.30;7.97;;;;;;;4.57;81.45;97789.06;1660738;85;25473;-77
2020/12/29 05:43:04;;;;;;;12.33;8.03;;;;;;;4.59;81.44;97796.68;1659709;84;21216;-77
2020/12/29 05:45:36;;;;;;;12.78;8.23;;;;;;;4.60;81.50;97797.91;1666922;85;21893;-77
2020/12/29 05:48:03;;;;;;;13.88;8.03;;;;;;;4.63;81.49;97800.80;1639350;86;22675;-76
2020/12/29 05:50:31;;;;;;;15.35;9.35;;;;;;;4.63;81.53;97807.19;1659323;84;21529;-77
2020/12/29 05:53:03;;;;;;;14.45;8.73;;;;;;;4.63;81.56;97802.91;1667828;83;21136;-77
2020/12/29 05:55:33;;;;;;;14.53;8.83;;;;;;;4.64;81.56;97812.25;1667717;84;21165;-77
2020/12/29 05:58:10;;;;;;;14.53;8.55;;;;;;;4.66;81.58;97810.91;1667666;84;21171;-77
2020/12/29 06:00:38;;;;;;;11.73;8.63;;;;;;;4.68;81.60;97810.86;1663683;84;21937;-78
2020/12/29 06:03:07;;;;;;;15.95;9.15;;;;;;;4.65;81.59;97806.24;1666128;85;21151;-77
2020/12/29 06:05:37;;;;;;;13.32;9.40;;;;;;;4.65;81.64;97804.97;1667594;85;21127;-77
2020/12/29 06:08:05;;;;;;;12.60;8.70;;;;;;;4.68;81.66;97810.86;1667356;85;21152;-77
2020/12/29 06:10:35;;;;;;;14.47;9.45;;;;;;;4.68;81.66;97809.10;1667505;84;21158;-77
2020/12/29 06:13:04;;;;;;;11.83;8.53;;;;;;;4.71;81.69;97812.00;1667231;85;21651;-77
2020/12/29 06:15:37;;;;;;;14.20;9.53;;;;;;;4.72;81.70;97810.66;1667835;85;21174;-77
2020/12/29 06:18:08;;;;;;;16.50;10.08;;;;;;;4.74;81.72;97815.72;1665452;84;21120;-77
2020/12/29 06:20:42;;;;;;;15.78;10.32;;;;;;;4.74;81.72;97819.11;1667648;84;21636;-77
2020/12/29 06:23:09;;;;;;;14.55;9.58;;;;;;;4.74;81.72;97819.11;1667484;84;21629;-78
2020/12/29 06:25:37;;;;;;;13.15;9.70;;;;;;;4.74;81.72;97822.95;1665637;85;21650;-77
2020/12/29 06:28:06;;;;;;;15.58;9.38;;;;;;;4.76;81.77;97829.30;1665733;84;21769;-77
2020/12/29 06:30:34;;;;;;;13.35;9.58;;;;;;;4.75;81.76;97831.02;1666228;84;21208;-77
2020/12/29 06:33:01;;;;;;;15.53;10.72;;;;;;;4.77;81.75;97832.24;1665978;85;21229;-77
2020/12/29 06:35:27;;;;;;;13.10;8.90;;;;;;;4.77;81.77;97830.97;1666300;84;21222;-77
2020/12/29 06:38:16;;;;;;;17.92;9.93;;;;;;;4.76;81.80;97826.73;1665906;84;21786;-77
2020/12/29 06:40:43;;;;;;;15.78;9.35;;;;;;;4.76;81.78;97839.53;1663243;84;21541;-77
2020/12/29 06:43:09;;;;;;;16.35;10.28;;;;;;;4.76;81.81;97842.09;1641731;85;21266;-77
2020/12/29 06:45:36;;;;;;;19.60;10.95;;;;;;;4.75;81.82;97845.09;1632228;84;21240;-77
2020/12/29 06:48:21;;;;;;;18.15;10.88;;;;;;;4.75;81.87;97852.78;1667485;84;21232;-77
2020/12/29 06:50:47;;;;;;;17.73;11.00;;;;;;;4.75;81.87;97854.50;1662381;84;21241;-79
2020/12/29 06:53:20;;;;;;;16.05;10.40;;;;;;;4.76;81.85;97857.45;1694438;84;26475;-77
2020/12/29 06:55:50;;;;;;;15.80;9.58;;;;;;;4.72;81.88;97855.45;1697957;84;21187;-77
2020/12/29 06:58:34;;;;;;;14.53;10.58;;;;;;;4.73;81.91;97857.56;1698987;82;21234;-77
2020/12/29 07:01:25;;;;;;;14.53;10.35;;;;;;;4.71;81.91;97856.78;1674342;82;21238;-77
2020/12/29 07:04:05;;;;;;;16.87;10.63;;;;;;;4.72;81.93;97866.13;1700090;83;21518;-78
2020/12/29 07:06:33;;;;;;;14.03;10.32;;;;;;;4.70;81.95;97866.63;1702110;84;21156;-77
2020/12/29 07:09:16;;;;;;;15.08;10.75;;;;;;;4.70;81.97;97868.75;1701688;83;21163;-77
2020/12/29 07:12:07;;;;;;;15.20;10.50;;;;;;;4.70;81.97;97868.75;1691685;82;21127;-77
2020/12/29 07:14:35;;;;;;;15.72;9.88;;;;;;;4.70;82.00;97874.31;1687279;84;21124;-77
2020/12/29 07:17:05;;;;;;;14.28;10.40;;;;;;;4.69;82.02;97880.32;1686454;84;21954;-77
2020/12/29 07:19:31;;;;;;;17.73;11.10;;;;;;;4.68;82.04;97886.36;1690997;84;21226;-77
2020/12/29 07:21:58;;;;;;;19.75;11.43;;;;;;;4.67;82.05;97884.69;1685479;84;21212;-78
2020/12/29 07:24:28;;;;;;;23.18;12.07;;;;;;;4.64;82.06;97886.47;1686675;82;21393;-77
2020/12/29 07:26:57;;;;;;;22.05;12.90;;;;;;;4.61;82.08;97898.09;1671523;84;21215;-76
2020/12/29 07:29:23;;;;;;;19.62;11.43;;;;;;;4.62;82.14;97903.61;1688585;82;21405;-76
2020/12/29 07:31:49;;;;;;;18.02;12.60;;;;;;;4.63;82.17;97908.28;1694627;83;21258;-76
2020/12/29 07:34:15;;;;;;;22.87;13.95;;;;;;;4.62;82.18;97918.95;1690983;84;21190;-75
2020/12/29 07:36:48;;;;;;;23.77;14.70;;;;;;;4.61;82.17;97921.13;1683520;84;21175;-77
2020/12/29 07:39:17;;;;;;;25.12;14.07;;;;;;;4.59;82.14;97924.63;1699171;84;22453;-77
2020/12/29 07:41:44;;;;;;;22.60;13.98;;;;;;;4.55;82.17;97930.30;1702614;83;21162;-77
2020/12/29 07:44:10;;;;;;;;;;;;;;;4.53;82.16;97935.08;1694470;84;21159;-78
2020/12/29 07:46:36;;;;;;;27.77;13.08;;;;;;;4.51;82.17;97943.25;1696529;82;20279;-76
2020/12/29 07:49:04;;;;;;;22.02;11.88;;;;;;;4.49;82.13;97946.30;1700343;84;27578;-77
2020/12/29 07:51:30;;;;;;;18.40;12.60;;;;;;;4.44;82.08;97946.46;1701080;84;21128;-76
2020/12/29 07:54:04;;;;;;;20.17;11.97;;;;;;;4.38;81.97;97949.67;1695728;84;22016;-76
2020/12/29 07:56:32;;;;;;;17.45;10.93;;;;;;;4.30;81.95;97957.16;1696338;84;21689;-77
2020/12/29 07:59:11;;;;;;;19.00;12.95;;;;;;;4.24;82.00;97961.20;1694003;83;21156;-76
2020/12/29 08:01:56;;;;;;;17.82;12.85;;;;;;;4.20;82.06;97971.58;1671355;84;21167;-77
2020/12/29 08:04:29;;;;;;;19.40;13.62;;;;;;;4.16;82.08;97976.43;1690689;83;21546;-76
2020/12/29 08:06:56;;;;;;;20.08;13.08;;;;;;;4.11;82.17;97979.13;1692536;83;21813;-75
2020/12/29 08:09:22;;;;;;;21.93;13.93;;;;;;;4.09;82.16;97975.79;1695612;84;21152;-76
2020/12/29 08:11:49;;;;;;;19.55;13.45;;;;;;;4.07;82.16;97981.39;1692196;84;21132;-76
2020/12/29 08:14:15;;;;;;;22.52;13.53;;;;;;;4.03;82.18;97990.49;1689539;84;21108;-75
2020/12/29 08:16:41;;;;;;;20.45;13.35;;;;;;;4.02;82.27;97991.38;1683509;83;21191;-74
2020/12/29 08:19:11;;;;;;;20.30;13.90;;;;;;;4.01;82.26;98006.32;1682288;84;21433;-74
2020/12/29 08:21:38;;;;;;;23.55;13.95;;;;;;;3.99;82.26;97998.26;1678490;84;21231;-74
2020/12/29 08:24:06;;;;;;;21.82;13.58;;;;;;;4.00;82.27;98005.48;1681891;83;21191;-74
2020/12/29 08:26:34;;;;;;;26.37;14.38;;;;;;;3.98;82.24;98010.64;1678750;83;21244;-74
2020/12/29 08:29:02;;;;;;;28.47;15.03;;;;;;;3.96;82.21;98021.36;1672290;83;21770;-74
2020/12/29 08:31:29;;;;;;;23.22;14.00;;;;;;;3.93;82.19;98011.23;1666271;84;21227;-74
2020/12/29 08:33:55;;;;;;;;;;;;;;;3.91;82.21;98014.27;1684337;84;21257;-75
2020/12/29 08:36:28;;;;;;;25.75;14.53;;;;;;;3.90;82.25;98014.33;1681275;84;20324;-75
2020/12/29 08:39:35;;;;;;;29.63;15.20;;;;;;;3.88;82.27;98016.09;1674312;83;21203;-74
2020/12/29 08:42:03;;;;;;;25.88;14.07;;;;;;;3.86;82.29;98019.97;1675689;83;21207;-75
2020/12/29 08:44:31;;;;;;;24.60;14.45;;;;;;;3.86;82.31;98013.58;1679536;84;21223;-74
2020/12/29 08:46:57;;;;;;;25.08;14.58;;;;;;;3.86;82.30;98022.53;1684348;84;21239;-75
2020/12/29 08:49:30;;;;;;;23.90;14.13;;;;;;;3.86;82.33;98021.69;1677994;84;21246;-75
2020/12/29 08:51:57;;;;;;;26.60;14.43;;;;;;;3.85;82.33;98028.52;1674588;83;21932;-75
2020/12/29 08:54:23;;;;;;;;;;;;;;;3.86;82.39;98031.47;1681875;83;21223;-75
2020/12/29 08:56:49;;;;;;;20.32;13.22;;;;;;;3.84;82.33;98030.69;1691209;84;21735;-80
2020/12/29 08:59:22;;;;;;;22.87;14.53;;;;;;;3.84;82.37;98035.80;1694242;83;21200;-77
2020/12/29 09:01:56;;;;;;;23.57;14.70;;;;;;;3.82;82.37;98038.84;1692296;84;21192;-76
2020/12/29 09:04:30;;;;;;;21.40;14.98;;;;;;;3.83;82.41;98041.79;1690971;83;21160;-76
2020/12/29 09:07:09;;;;;;;21.93;14.53;;;;;;;3.85;82.42;98043.86;1691884;83;21199;-76
2020/12/29 09:09:56;;;;;;;24.12;14.70;;;;;;;3.85;82.43;98046.86;1687814;83;22036;-75
2020/12/29 09:12:31;;;;;;;25.23;16.40;;;;;;;3.86;82.48;98041.70;1668008;84;21244;-76
2020/12/29 09:15:09;;;;;;;23.70;15.23;;;;;;;3.85;82.41;98050.69;1641085;86;21154;-75
2020/12/29 09:17:44;;;;;;;22.60;14.60;;;;;;;3.83;82.40;98052.02;1679504;84;21135;-76
2020/12/29 09:20:29;;;;;;;23.92;14.50;;;;;;;3.83;82.46;98062.23;1681442;84;21156;-76
2020/12/29 09:23:11;;;;;;;28.00;15.45;;;;;;;3.84;82.45;98060.52;1679413;83;21545;-77
2020/12/29 09:25:42;;;;;;;23.32;14.43;;;;;;;3.82;82.45;98064.84;1682018;83;21178;-77
2020/12/29 09:28:29;;;;;;;22.87;14.98;;;;;;;3.81;82.47;98066.55;1684468;83;21160;-76
2020/12/29 09:31:05;;;;;;;22.37;15.18;;;;;;;3.82;82.50;98084.01;1678868;84;21132;-77
2020/12/29 09:33:33;;;;;;;21.75;14.20;;;;;;;3.81;82.51;98085.73;1687204;84;21131;-76
2020/12/29 09:36:02;;;;;;;25.02;15.15;;;;;;;3.81;82.52;98091.28;1695076;84;21298;-76
2020/12/29 09:38:27;;;;;;;22.98;15.78;;;;;;;3.82;82.52;98092.52;1692527;84;21147;-77
2020/12/29 09:40:54;;;;;;;24.03;15.80;;;;;;;3.82;82.52;98092.52;1691097;84;20966;-78
2020/12/29 09:43:22;;;;;;;20.75;14.30;;;;;;;3.82;82.48;98093.79;1695439;83;21890;-77
2020/12/29 09:45:49;;;;;;;24.02;15.03;;;;;;;3.83;82.54;98098.46;1693864;83;21143;-78
2020/12/29 09:48:16;;;;;;;24.75;15.48;;;;;;;3.83;82.56;98103.58;1686840;84;22153;-78
2020/12/29 09:50:42;;;;;;;24.30;15.93;;;;;;;3.85;82.62;98108.20;1696314;84;21131;-77
2020/12/29 09:53:09;;;;;;;22.62;15.00;;;;;;;3.87;82.66;98106.44;1673559;84;21157;-77
2020/12/29 09:55:35;;;;;;;26.00;15.18;;;;;;;3.90;82.65;98108.91;1667643;84;21124;-77
2020/12/29 09:58:01;;;;;;;23.52;15.68;;;;;;;3.93;82.66;98112.21;1667969;85;21623;-77
2020/12/29 10:00:27;;;;;;;27.53;16.67;;;;;;;3.95;82.65;98112.16;1662552;84;21183;-78
2020/12/29 10:02:53;;;;;;;25.70;16.30;;;;;;;3.96;82.60;98119.79;1664620;84;21719;-78
2020/12/29 10:05:19;;;;;;;27.80;17.23;;;;;;;3.97;82.66;98125.74;1666434;85;21948;-78
2020/12/29 10:07:46;;;;;;;32.03;16.73;;;;;;;4.01;82.72;98136.27;1665606;84;21000;-76
2020/12/29 10:10:12;;;;;;;26.57;17.05;;;;;;;4.04;82.71;98136.19;1661622;85;21228;-76
2020/12/29 10:12:38;;;;;;;28.75;16.80;;;;;;;4.06;82.69;98131.86;1655270;85;21203;-76
2020/12/29 10:15:05;;;;;;;25.35;16.17;;;;;;;4.10;82.69;98137.72;1665124;85;21418;-82
2020/12/29 10:17:32;;;;;;;27.25;16.27;;;;;;;4.07;82.62;98134.81;1664694;85;21209;-79
2020/12/29 10:19:58;;;;;;;27.82;16.37;;;;;;;4.09;82.60;98143.28;1653820;85;21238;-78
2020/12/29 10:22:27;;;;;;;28.35;16.77;;;;;;;4.08;82.59;98144.16;1664858;85;21668;-79
2020/12/29 10:24:54;;;;;;;33.70;17.67;;;;;;;4.11;82.68;98138.12;1657981;84;21242;-79
2020/12/29 10:27:21;;;;;;;24.80;15.75;;;;;;;4.14;82.69;98146.54;1659865;85;21230;-79
2020/12/29 10:29:47;;;;;;;25.92;15.48;;;;;;;4.16;82.65;98147.30;1659680;85;21238;-79
2020/12/29 10:32:13;;;;;;;;;;;;;;;4.15;82.59;98146.09;1660754;85;21182;-80
2020/12/29 10:34:39;;;;;;;27.62;15.80;;;;;;;4.16;82.62;98149.86;1660597;84;20231;-80
2020/12/29 10:37:13;;;;;;;22.83;14.37;;;;;;;4.13;82.63;98152.53;1661590;84;21218;-78
2020/12/29 10:39:39;;;;;;;24.00;14.28;;;;;;;4.13;82.61;98153.81;1659407;84;21656;-78
2020/12/29 10:42:05;;;;;;;28.77;16.65;;;;;;;4.14;82.65;98149.54;1645430;84;21368;-80
2020/12/29 10:44:31;;;;;;;26.75;16.23;;;;;;;4.15;82.64;98158.88;1659742;85;21216;-80
2020/12/29 10:46:58;;;;;;;23.45;15.40;;;;;;;4.15;82.64;98162.28;1655321;85;21220;-80
2020/12/29 10:49:24;;;;;;;22.67;15.83;;;;;;;4.16;82.69;98164.39;1653319;85;21220;-81
2020/12/29 10:51:50;;;;;;;23.70;15.03;;;;;;;4.20;82.76;98169.78;1658877;85;21233;-79
2020/12/29 10:54:16;;;;;;;24.92;14.85;;;;;;;4.23;82.76;98165.41;1651953;85;21236;-79
2020/12/29 10:56:43;;;;;;;25.12;15.43;;;;;;;4.27;82.77;98173.84;1666950;85;22317;-79
2020/12/29 10:59:09;;;;;;;26.85;16.55;;;;;;;4.30;82.74;98167.35;1651603;85;21227;-79
2020/12/29 11:01:35;;;;;;;26.20;15.15;;;;;;;4.32;82.73;98170.70;1657660;85;21397;-81
2020/12/29 11:04:01;;;;;;;24.67;15.27;;;;;;;4.34;82.74;98175.33;1659091;85;21155;-79
2020/12/29 11:06:27;;;;;;;22.17;14.50;;;;;;;4.37;82.72;98175.68;1672293;84;21124;-79
2020/12/29 11:08:53;;;;;;;23.85;15.15;;;;;;;4.37;82.70;98180.80;1644975;85;21547;-79
2020/12/29 11:11:20;;;;;;;26.73;15.37;;;;;;;4.39;82.69;98181.59;1663563;85;21145;-78
2020/12/29 11:13:47;;;;;;;20.27;14.53;;;;;;;4.38;82.65;98192.27;1665632;85;21500;-79
2020/12/29 11:16:15;;;;;;;26.62;15.93;;;;;;;4.37;82.61;98198.70;1659557;85;21662;-80
2020/12/29 11:18:43;;;;;;;23.02;14.58;;;;;;;4.35;82.63;98200.03;1661327;85;21199;-79
2020/12/29 11:21:09;;;;;;;22.75;15.65;;;;;;;4.34;82.61;98200.91;1653875;84;21224;-78
2020/12/29 11:23:35;;;;;;;22.50;14.65;;;;;;;4.30;82.59;98192.49;1663725;84;21188;-78
2020/12/29 11:26:01;;;;;;;23.55;15.30;;;;;;;4.30;82.62;98196.77;1660801;84;22237;-78
2020/12/29 11:28:28;;;;;;;25.00;16.12;;;;;;;4.29;82.62;98202.77;1676100;85;21693;-78
2020/12/29 11:30:54;;;;;;;24.10;14.93;;;;;;;4.27;82.55;98216.05;1658934;85;21187;-77
2020/12/29 11:33:20;;;;;;;25.00;14.93;;;;;;;4.26;82.58;98215.64;1657831;84;21046;-78
2020/12/29 11:35:47;;;;;;;65.10;49.48;;;;;;;4.25;82.63;98222.92;1663199;84;21201;-78
2020/12/29 11:38:16;;;;;;;32.20;21.50;;;;;;;4.24;82.63;98233.59;1659006;85;21264;-78
2020/12/29 11:40:43;;;;;;;29.70;21.02;;;;;;;4.25;82.65;98248.50;1664696;84;21148;-79